»·PEaware :: WAT169 KLAS-KSAN

WAT169 :: KLAS-KSAN

FLIGHT INFORMATION

Flight Status: Arrived
Operator: Unknown
More flights by this operator :: More flights under this callsign
Pilot: Marty P. (27464)
Aircraft: BOEING 737-800
(B738)
More flights by this aircraft type
Origin: KLAS McCarran Intl
United States
Destination: KSAN San Diego Intl-Lindbergh
United States
More flights between these airports :: More routes between these airports
Route: +BOACH8 LVELL LUCKI1
File this flight plan on PilotEdge
Remarks:
Altitude:
(Current/Filed)
28,000ft
Speed:
(Current/Filed)
470kts
Departed: 18-May-20 08:55 PM
Arrived: 18-May-20 09:44 PM
Distance/Time
Traveled:
225nm/0:49
Distance/Time
To Go:
Arrived

Flight Plot

Page will automatically refresh every two minutes.


Map Options




Map Legend


Flown Route
Filed Route
Departure Airport
Arrival Airport
Navaid (VOR, NDB)
Fix

Horizontal Profiles

Position Reports

Time Latitude Longitude Heading Altitude Ground
Speed
18-May-20 20:30 36.081009 -115.147654 61 2191ft 0kts
18-May-20 20:31 36.081009 -115.147654 61 2191ft 0kts
18-May-20 20:32 36.081009 -115.147654 61 2191ft 0kts
18-May-20 20:33 36.081009 -115.147654 61 2191ft 0kts
18-May-20 20:34 36.081009 -115.147654 61 2191ft 0kts
18-May-20 20:35 36.081009 -115.147654 61 2191ft 0kts
18-May-20 20:36 36.081009 -115.147654 61 2191ft 0kts
18-May-20 20:37 36.081003 -115.147667 61 2191ft 1kts
18-May-20 20:38 36.080979 -115.148356 122 2191ft 2kts
18-May-20 20:39 36.081230 -115.148617 155 2191ft 0kts
18-May-20 20:40 36.081230 -115.148617 155 2191ft 0kts
18-May-20 20:41 36.081072 -115.148522 154 2191ft 0kts
18-May-20 20:42 36.080047 -115.147940 155 2191ft 3kts
18-May-20 20:43 36.078494 -115.146675 99 2191ft 3kts
18-May-20 20:44 36.078367 -115.144975 95 2191ft 5kts
18-May-20 20:45 36.078287 -115.143725 93 2191ft 4kts
18-May-20 20:46 36.078261 -115.142041 88 2191ft 7kts
18-May-20 20:47 36.078267 -115.135727 90 2191ft 23kts
18-May-20 20:48 36.078274 -115.127464 90 2191ft 23kts
18-May-20 20:49 36.078039 -115.122401 116 2191ft 1kts
18-May-20 20:50 36.078011 -115.122339 120 2191ft 0kts
18-May-20 20:51 36.078011 -115.122339 120 2191ft 0kts
18-May-20 20:52 36.077611 -115.121701 129 2191ft 9kts
18-May-20 20:53 36.077437 -115.121477 141 2191ft 0kts
18-May-20 20:54 36.076432 -115.123641 269 2191ft 55kts
18-May-20 20:55 36.076874 -115.174785 266 3654ft 190kts
18-May-20 20:56 36.061234 -115.251164 227 5878ft 259kts
18-May-20 20:57 35.996569 -115.290141 201 6993ft 254kts
18-May-20 20:58 35.926133 -115.307168 187 10695ft 256kts
18-May-20 20:59 35.848770 -115.314008 179 12321ft 322kts
18-May-20 21:00 35.758343 -115.303866 178 15351ft 329kts
18-May-20 21:01 35.666663 -115.294947 184 18052ft 333kts
18-May-20 21:02 35.570140 -115.298952 186 19607ft 362kts
18-May-20 21:03 35.468118 -115.303063 186 21610ft 372kts
18-May-20 21:04 35.363255 -115.307249 186 22809ft 382kts
18-May-20 21:05 35.257665 -115.311402 186 22965ft 387kts
18-May-20 21:06 35.150201 -115.315629 186 24762ft 392kts
18-May-20 21:07 35.040069 -115.319948 186 26190ft 402kts
18-May-20 21:09 34.927081 -115.324355 186 27462ft 412kts
18-May-20 21:10 34.815048 -115.334215 193 27798ft 415kts
18-May-20 21:11 34.702780 -115.368845 200 27799ft 419kts
18-May-20 21:12 34.591930 -115.414631 202 27879ft 422kts
18-May-20 21:13 34.480927 -115.462511 202 27935ft 425kts
18-May-20 21:14 34.370040 -115.511156 205 27935ft 425kts
18-May-20 21:15 34.265616 -115.576969 212 27935ft 423kts
18-May-20 21:16 34.158351 -115.637170 205 27935ft 426kts
18-May-20 21:17 34.050376 -115.689878 204 27925ft 426kts
18-May-20 21:18 33.940527 -115.742042 204 27838ft 429kts
18-May-20 21:19 33.830528 -115.795475 205 27801ft 408kts
18-May-20 21:20 33.732593 -115.842960 204 27811ft 378kts
18-May-20 21:21 33.634725 -115.888658 204 27476ft 369kts
18-May-20 21:22 33.540854 -115.935798 213 24507ft 362kts
18-May-20 21:23 33.473422 -116.019761 231 23812ft 354kts
18-May-20 21:24 33.416204 -116.115486 233 23807ft 355kts
18-May-20 21:25 33.360423 -116.210999 232 22817ft 342kts
18-May-20 21:26 33.288073 -116.279890 208 20345ft 333kts
18-May-20 21:26 33.220272 -116.319076 207 18473ft 322kts
18-May-20 21:28 33.128533 -116.372526 208 16552ft 325kts
18-May-20 21:28 33.062853 -116.410857 207 14886ft 308kts
18-May-20 21:29 32.991604 -116.457920 218 13766ft 273kts
18-May-20 21:31 32.924933 -116.525651 220 11777ft 269kts
18-May-20 21:31 32.880492 -116.570437 220 11207ft 243kts
18-May-20 21:32 32.828571 -116.622711 221 10050ft 255kts
18-May-20 21:33 32.775991 -116.677978 230 8645ft 256kts
18-May-20 21:34 32.739462 -116.750479 241 7227ft 258kts
18-May-20 21:35 32.705184 -116.825075 247 5837ft 250kts
18-May-20 21:36 32.683138 -116.896766 251 4751ft 216kts
18-May-20 21:37 32.678169 -116.965172 284 3766ft 213kts
18-May-20 21:38 32.691725 -117.017545 284 2965ft 140kts
18-May-20 21:39 32.702524 -117.061963 285 2290ft 139kts
18-May-20 21:40 32.713343 -117.106436 286 1393ft 140kts
18-May-20 21:41 32.724170 -117.150910 286 779ft 142kts
18-May-20 21:42 32.734105 -117.191740 285 27ft 68kts
18-May-20 21:43 32.734264 -117.199499 145 27ft 6kts

Navigation Log

Ident Type
Flight plan parsing failed, navigation log unavailable